createdAt,value
2023-01-13T00:00:14.338Z,65647.09
2023-01-13T00:05:38.652Z,65721.22
2023-01-13T00:10:48.401Z,65721.22
2023-01-13T00:15:57.415Z,65714.16
2023-01-13T00:21:02.992Z,65671.19
2023-01-13T00:26:10.794Z,65717.13
2023-01-13T00:31:17.496Z,65703.66
2023-01-13T00:36:23.250Z,65723.88
2023-01-13T00:41:29.345Z,65728.88
2023-01-13T00:46:33.492Z,65731.00
2023-01-13T00:51:37.671Z,65648.06
2023-01-13T00:56:45.219Z,65713.94
2023-01-13T01:01:51.851Z,65738.47
2023-01-13T01:06:56.725Z,65717.56
2023-01-13T01:12:03.826Z,65770.34
2023-01-13T01:17:10.485Z,65724.50
2023-01-13T01:22:16.844Z,65682.75
2023-01-13T01:27:24.890Z,65658.50
2023-01-13T01:32:31.702Z,65663.75
2023-01-13T01:37:38.133Z,65704.03
2023-01-13T01:43:03.261Z,65678.59
2023-01-13T01:48:11.073Z,65726.75
2023-01-13T01:53:22.084Z,65776.94
2023-01-13T01:58:34.584Z,65771.59
2023-01-13T02:03:45.696Z,65810.09
2023-01-13T02:08:54.793Z,65865.25
2023-01-13T02:14:02.555Z,65892.22
2023-01-13T02:19:25.591Z,65876.28
2023-01-13T02:25:07.726Z,65887.50
2023-01-13T02:30:41.786Z,65908.44
2023-01-13T02:35:54.367Z,65897.13
2023-01-13T02:41:26.632Z,65853.91
2023-01-13T02:46:38.359Z,65892.94
2023-01-13T02:51:47.922Z,65823.97
2023-01-13T02:56:57.271Z,65872.00
2023-01-13T03:02:06.631Z,65883.84
2023-01-13T03:07:19.532Z,65913.19
2023-01-13T03:12:31.464Z,65887.50
2023-01-13T03:17:44.021Z,65872.09
2023-01-13T03:22:58.608Z,65917.97
2023-01-13T03:28:07.160Z,65904.00
2023-01-13T03:33:19.123Z,65893.94
2023-01-13T03:38:32.288Z,65890.38
2023-01-13T03:44:01.676Z,65871.91
2023-01-13T03:49:13.684Z,65806.25
2023-01-13T03:54:25.025Z,65764.09
2023-01-13T03:59:34.702Z,65793.25
2023-01-13T04:04:47.017Z,65774.25
2023-01-13T04:09:56.768Z,65809.03
2023-01-13T04:15:03.928Z,65736.78
2023-01-13T04:20:13.707Z,65744.25
2023-01-13T04:25:21.105Z,65728.88
2023-01-13T04:30:28.757Z,65728.88
2023-01-13T04:35:37.781Z,65716.91
2023-01-13T04:40:44.941Z,65761.34
2023-01-13T04:45:52.465Z,65710.72
2023-01-13T04:50:59.939Z,65717.56
2023-01-13T04:56:05.664Z,65684.44
2023-01-13T05:01:11.390Z,65756.66
2023-01-13T05:06:19.341Z,65686.16
2023-01-13T05:11:42.750Z,65673.88
2023-01-13T05:17:03.949Z,65678.69
2023-01-13T05:22:29.053Z,65678.69
2023-01-13T05:27:36.513Z,65677.09
2023-01-13T05:32:44.148Z,65711.69
2023-01-13T05:37:52.635Z,65711.16
2023-01-13T05:43:25.018Z,65779.06
2023-01-13T05:48:35.109Z,65773.72
2023-01-13T05:53:43.669Z,65761.97
2023-01-13T05:58:51.364Z,65833.59
2023-01-13T06:03:57.958Z,65844.28
2023-01-13T06:09:05.696Z,65836.19
2023-01-13T06:14:12.431Z,65834.03
2023-01-13T06:19:19.871Z,65854.44
2023-01-13T06:24:28.093Z,65776.84
2023-01-13T06:29:35.185Z,65741.25
2023-01-13T06:34:43.875Z,65777.38
2023-01-13T06:39:52.739Z,65790.22
2023-01-13T06:45:00.520Z,65748.00
2023-01-13T06:50:08.323Z,65770.97
2023-01-13T06:55:16.564Z,65768.19
2023-01-13T07:00:25.703Z,65803.66
2023-01-13T07:05:33.094Z,65784.41
2023-01-13T07:10:41.814Z,65845.88
2023-01-13T07:16:00.029Z,65901.59
2023-01-13T07:21:09.401Z,65912.09
2023-01-13T07:26:19.012Z,65908.34
2023-01-13T07:31:26.756Z,65926.72
2023-01-13T07:36:34.421Z,65938.41
2023-01-13T07:42:00.396Z,65879.59
2023-01-13T07:47:09.328Z,65817.91
2023-01-13T07:52:16.541Z,65844.09
2023-01-13T07:57:24.427Z,65885.97
2023-01-13T08:02:31.438Z,65968.28
2023-01-13T08:07:37.894Z,65991.28
2023-01-13T08:13:01.406Z,66008.94
2023-01-13T08:18:05.576Z,65975.75
2023-01-13T08:23:12.015Z,65939.91
2023-01-13T08:28:19.195Z,65898.28
2023-01-13T08:33:25.298Z,65852.84
2023-01-13T08:38:32.408Z,65857.75
2023-01-13T08:43:41.231Z,65809.47
2023-01-13T08:48:48.559Z,65856.56
2023-01-13T08:53:56.031Z,65770.53
2023-01-13T08:59:05.133Z,65805.38
2023-01-13T09:04:19.215Z,65879.47
2023-01-13T09:09:28.410Z,65884.91
2023-01-13T09:14:38.717Z,65919.06
2023-01-13T09:19:46.147Z,65934.13
2023-01-13T09:24:53.482Z,65933.50
2023-01-13T09:30:02.404Z,65962.47
2023-01-13T09:35:08.884Z,66032.47
2023-01-13T09:40:23.024Z,66043.72
2023-01-13T09:45:34.071Z,66035.72
2023-01-13T09:51:02.131Z,66103.72
2023-01-13T09:56:12.088Z,66015.38
2023-01-13T10:01:29.532Z,66015.91
2023-01-13T10:06:39.875Z,65936.97
2023-01-13T10:12:06.126Z,65960.88
2023-01-13T10:17:23.369Z,65965.59
2023-01-13T10:22:54.701Z,65976.91
2023-01-13T10:28:11.006Z,65921.72
2023-01-13T10:33:29.562Z,65930.19
2023-01-13T10:38:41.830Z,65865.66
2023-01-13T10:44:00.047Z,65874.13
2023-01-13T10:49:34.480Z,65907.28
2023-01-13T10:54:53.232Z,65894.53
2023-01-13T10:59:59.823Z,65819.09
2023-01-13T11:05:24.695Z,65862.28
2023-01-13T11:10:34.004Z,65857.13
2023-01-13T11:15:47.038Z,65910.59
2023-01-13T11:20:57.929Z,65858.09
2023-01-13T11:26:11.374Z,65877.44
2023-01-13T11:31:22.536Z,65812.56
2023-01-13T11:36:34.571Z,65896.78
2023-01-13T11:41:46.743Z,65876.19
2023-01-13T11:46:54.456Z,65838.75
2023-01-13T11:52:06.201Z,65861.41
2023-01-13T11:57:38.041Z,65787.66
2023-01-13T12:02:58.715Z,65847.84
2023-01-13T12:08:19.872Z,65880.00
2023-01-13T12:13:36.173Z,65884.22
2023-01-13T12:19:16.913Z,65867.19
2023-01-13T12:24:31.558Z,65864.06
2023-01-13T12:29:40.541Z,65813.72
2023-01-13T12:35:06.674Z,65802.59
2023-01-13T12:40:33.860Z,65783.78
2023-01-13T12:45:40.099Z,65850.09
2023-01-13T12:50:47.116Z,65867.28
2023-01-13T12:55:54.246Z,65884.28
2023-01-13T13:01:02.428Z,65815.97
2023-01-13T13:06:15.960Z,65877.34
2023-01-13T13:11:58.743Z,65924.94
2023-01-13T13:17:03.176Z,65902.56
2023-01-13T13:22:39.261Z,65886.44
2023-01-13T13:27:51.346Z,65859.81
2023-01-13T13:33:07.535Z,65882.16
2023-01-13T13:38:43.940Z,65857.56
2023-01-13T13:44:07.283Z,65868.78
2023-01-13T13:49:12.001Z,65905.06
2023-01-13T13:54:19.429Z,65884.22
2023-01-13T13:59:27.214Z,65871.03
2023-01-13T14:04:33.733Z,65874.13
2023-01-13T14:09:43.095Z,65860.25
2023-01-13T14:14:49.671Z,65814.28
2023-01-13T14:19:56.926Z,65822.28
2023-01-13T14:25:02.103Z,65823.16
2023-01-13T14:30:20.563Z,65838.22
2023-01-13T14:35:24.779Z,65817.13
2023-01-13T14:40:47.006Z,65830.41
2023-01-13T14:46:00.745Z,65773.63
2023-01-13T14:51:09.575Z,65787.00
2023-01-13T14:56:43.558Z,65773.09
2023-01-13T15:01:49.180Z,65797.81
2023-01-13T15:06:55.468Z,65779.69
2023-01-13T15:12:00.759Z,65811.59
2023-01-13T15:17:19.479Z,65824.97
2023-01-13T15:22:23.734Z,65811.59
2023-01-13T15:27:28.011Z,65783.34
2023-01-13T15:32:33.665Z,65803.59
2023-01-13T15:37:38.158Z,65774.63
2023-01-13T15:42:59.928Z,65805.19
2023-01-13T15:48:06.098Z,65841.00
2023-01-13T15:53:14.377Z,65844.28
2023-01-13T15:58:22.020Z,65805.28
2023-01-13T16:03:27.579Z,65806.88
2023-01-13T16:08:34.276Z,65857.56
2023-01-13T16:13:38.543Z,65821.66
2023-01-13T16:18:44.103Z,65782.81
2023-01-13T16:23:49.025Z,65793.34
2023-01-13T16:28:55.701Z,65829.88
2023-01-13T16:34:02.234Z,65833.59
2023-01-13T16:39:19.642Z,65849.44
2023-01-13T16:44:24.057Z,65865.66
2023-01-13T16:49:29.545Z,65861.84
2023-01-13T16:54:34.822Z,65893.38
2023-01-13T16:59:38.994Z,65807.84
2023-01-13T17:04:44.499Z,65781.13
2023-01-13T17:09:49.210Z,65808.41
2023-01-13T17:14:53.521Z,65831.28
2023-01-13T17:19:59.960Z,65808.94
2023-01-13T17:25:04.136Z,65829.34
2023-01-13T17:30:09.677Z,65798.13
2023-01-13T17:35:19.061Z,65801.00
2023-01-13T17:40:23.630Z,65829.34
2023-01-13T17:45:27.819Z,65876.81
2023-01-13T17:50:34.494Z,65851.16
2023-01-13T17:55:38.711Z,65926.09
2023-01-13T18:00:43.242Z,65871.13
2023-01-13T18:05:49.473Z,65885.97
2023-01-13T18:10:54.836Z,65916.47
2023-01-13T18:16:04.436Z,65928.97
2023-01-13T18:21:36.537Z,65821.31
2023-01-13T18:26:58.412Z,65831.47
2023-01-13T18:32:02.627Z,65796.00
2023-01-13T18:37:10.193Z,65798.13
2023-01-13T18:42:31.874Z,65776.94
2023-01-13T18:47:39.109Z,65810.88
2023-01-13T18:52:44.989Z,65784.84
2023-01-13T18:57:49.476Z,65803.78
2023-01-13T19:08:12.365Z,65854.44
2023-01-13T19:13:16.794Z,65811.16
2023-01-13T19:18:22.444Z,65809.56
2023-01-13T19:23:28.038Z,65804.19
2023-01-13T19:28:32.431Z,65808.41
2023-01-13T19:33:38.097Z,65790.31
2023-01-13T19:38:43.704Z,65814.81
2023-01-13T19:44:04.944Z,65772.56
2023-01-13T19:49:10.462Z,65750.13
2023-01-13T19:54:16.137Z,65824.88
2023-01-13T19:59:29.113Z,65756.97
2023-01-13T20:04:38.447Z,65710.09
2023-01-13T20:09:45.403Z,65745.31
2023-01-13T20:14:50.118Z,65713.94
2023-01-13T20:19:54.539Z,65713.94
2023-01-13T20:25:00.136Z,65780.59
2023-01-13T20:30:04.526Z,65719.16
2023-01-13T20:35:09.619Z,65779.53
2023-01-13T20:40:18.455Z,65770.97
2023-01-13T20:45:23.460Z,65811.59
2023-01-13T20:50:27.698Z,65790.75
2023-01-13T20:55:33.385Z,65791.75
2023-01-13T21:00:37.657Z,65776.84
2023-01-13T21:05:41.792Z,65804.19
2023-01-13T21:10:47.511Z,65847.94
2023-01-13T21:15:52.582Z,65846.34
2023-01-13T21:21:11.747Z,65837.16
2023-01-13T21:26:19.520Z,65825.56
2023-01-13T21:31:25.806Z,65809.03
2023-01-13T21:36:31.200Z,65793.34
2023-01-13T21:41:54.190Z,65776.94
2023-01-13T21:47:15.870Z,65751.13
2023-01-13T21:52:20.099Z,65764.56
2023-01-13T21:57:27.280Z,65779.00
2023-01-13T22:02:33.071Z,65721.22
2023-01-13T22:07:37.774Z,65738.94
2023-01-13T22:12:44.742Z,65659.47
2023-01-13T22:17:52.413Z,65620.53
2023-01-13T22:22:56.719Z,65644.31
2023-01-13T22:28:06.141Z,65655.00
2023-01-13T22:33:10.775Z,65643.47
2023-01-13T22:38:15.866Z,65658.94
2023-01-13T22:43:21.485Z,65662.69
2023-01-13T22:48:25.913Z,65677.53
2023-01-13T22:53:30.589Z,65666.31
2023-01-13T22:58:36.347Z,65658.84
2023-01-13T23:03:42.086Z,65632.50
2023-01-13T23:08:47.461Z,65636.34
2023-01-13T23:13:58.686Z,65619.97
2023-01-13T23:19:03.163Z,65649.31
2023-01-13T23:24:08.684Z,65602.91
2023-01-13T23:29:14.865Z,65641.34
2023-01-13T23:34:19.200Z,65631.53
2023-01-13T23:39:24.652Z,65664.81
2023-01-13T23:44:30.645Z,65651.47
2023-01-13T23:49:34.617Z,65701.09
2023-01-13T23:54:39.097Z,65666.84
2023-01-13T23:59:45.089Z,65635.44
